sensor_id;sensor_type;location;lat;lon;timestamp;P1;durP1;ratioP1;P2;durP2;ratioP2
62110;SDS011;48102;47.526;19.072;2022-11-11T04:41:15;9.60;;;5.75;;
62110;SDS011;48102;47.526;19.072;2022-11-11T04:44:37;11.27;;;7.95;;
62110;SDS011;48102;47.526;19.072;2022-11-11T04:48:16;10.98;;;6.70;;
62110;SDS011;48102;47.526;19.072;2022-11-11T04:51:37;10.63;;;7.12;;
62110;SDS011;48102;47.526;19.072;2022-11-11T04:55:17;8.52;;;6.85;;
62110;SDS011;48102;47.526;19.072;2022-11-11T04:58:57;11.82;;;6.55;;
62110;SDS011;48102;47.526;19.072;2022-11-11T05:02:36;11.50;;;8.25;;
62110;SDS011;48102;47.526;19.072;2022-11-11T05:06:16;6.95;;;5.78;;
62110;SDS011;48102;47.526;19.072;2022-11-11T05:10:03;9.55;;;6.45;;
62110;SDS011;48102;47.526;19.072;2022-11-11T05:13:25;15.10;;;7.72;;
62110;SDS011;48102;47.526;19.072;2022-11-11T05:17:05;9.93;;;7.85;;
62110;SDS011;48102;47.526;19.072;2022-11-11T05:20:48;11.93;;;7.82;;
62110;SDS011;48102;47.526;19.072;2022-11-11T05:24:28;6.85;;;6.00;;
62110;SDS011;48102;47.526;19.072;2022-11-11T05:28:07;14.57;;;7.12;;
62110;SDS011;48102;47.526;19.072;2022-11-11T05:31:28;11.70;;;6.53;;
62110;SDS011;48102;47.526;19.072;2022-11-11T05:34:50;8.98;;;6.07;;
62110;SDS011;48102;47.526;19.072;2022-11-11T05:38:11;6.53;;;5.37;;
62110;SDS011;48102;47.526;19.072;2022-11-11T05:41:40;11.57;;;8.70;;
62110;SDS011;48102;47.526;19.072;2022-11-11T05:45:02;8.23;;;6.20;;
62110;SDS011;48102;47.526;19.072;2022-11-11T05:48:23;10.25;;;6.18;;
62110;SDS011;48102;47.526;19.072;2022-11-11T05:51:44;11.73;;;6.78;;
62110;SDS011;48102;47.526;19.072;2022-11-11T05:55:07;11.80;;;7.87;;
62110;SDS011;48102;47.526;19.072;2022-11-11T05:58:28;12.70;;;7.65;;
62110;SDS011;48102;47.526;19.072;2022-11-11T06:01:49;15.27;;;7.32;;
62110;SDS011;48102;47.526;19.072;2022-11-11T06:05:10;10.40;;;6.70;;
62110;SDS011;48102;47.526;19.072;2022-11-11T06:08:31;9.23;;;6.37;;
62110;SDS011;48102;47.526;19.072;2022-11-11T06:11:52;11.18;;;6.85;;
62110;SDS011;48102;47.526;19.072;2022-11-11T06:15:13;10.77;;;6.95;;
62110;SDS011;48102;47.526;19.072;2022-11-11T06:18:35;12.35;;;7.07;;
62110;SDS011;48102;47.526;19.072;2022-11-11T06:21:56;13.43;;;7.95;;
62110;SDS011;48102;47.526;19.072;2022-11-11T06:25:17;11.23;;;7.82;;
62110;SDS011;48102;47.526;19.072;2022-11-11T06:28:57;10.10;;;7.20;;
62110;SDS011;48102;47.526;19.072;2022-11-11T06:32:18;12.90;;;7.25;;
62110;SDS011;48102;47.526;19.072;2022-11-11T06:35:42;10.68;;;8.27;;
62110;SDS011;48102;47.526;19.072;2022-11-11T06:39:04;11.77;;;7.45;;
62110;SDS011;48102;47.526;19.072;2022-11-11T06:42:25;11.57;;;7.72;;
62110;SDS011;48102;47.526;19.072;2022-11-11T06:45:49;12.35;;;8.07;;
62110;SDS011;48102;47.526;19.072;2022-11-11T06:49:11;14.07;;;8.02;;
62110;SDS011;48102;47.526;19.072;2022-11-11T06:52:32;11.27;;;7.47;;
62110;SDS011;48102;47.526;19.072;2022-11-11T06:55:54;9.50;;;6.68;;
62110;SDS011;48102;47.526;19.072;2022-11-11T06:59:15;14.90;;;7.75;;
62110;SDS011;48102;47.526;19.072;2022-11-11T07:02:36;12.63;;;8.00;;
62110;SDS011;48102;47.526;19.072;2022-11-11T07:05:59;12.80;;;7.40;;
62110;SDS011;48102;47.526;19.072;2022-11-11T07:09:20;12.27;;;8.05;;
62110;SDS011;48102;47.526;19.072;2022-11-11T07:12:43;11.15;;;7.32;;
62110;SDS011;48102;47.526;19.072;2022-11-11T07:16:04;11.50;;;7.53;;
62110;SDS011;48102;47.526;19.072;2022-11-11T07:19:26;9.52;;;7.60;;
62110;SDS011;48102;47.526;19.072;2022-11-11T07:22:48;10.68;;;7.00;;
62110;SDS011;48102;47.526;19.072;2022-11-11T07:26:09;10.18;;;8.30;;
62110;SDS011;48102;47.526;19.072;2022-11-11T07:29:30;10.27;;;7.85;;
62110;SDS011;48102;47.526;19.072;2022-11-11T07:32:51;11.75;;;7.53;;
62110;SDS011;48102;47.526;19.072;2022-11-11T07:36:15;12.27;;;7.75;;
62110;SDS011;48102;47.526;19.072;2022-11-11T07:39:36;12.23;;;8.05;;
62110;SDS011;48102;47.526;19.072;2022-11-11T07:42:58;11.12;;;7.95;;
62110;SDS011;48102;47.526;19.072;2022-11-11T07:46:19;10.98;;;8.13;;
62110;SDS011;48102;47.526;19.072;2022-11-11T07:49:41;12.10;;;7.95;;
62110;SDS011;48102;47.526;19.072;2022-11-11T07:53:02;9.52;;;7.43;;
62110;SDS011;48102;47.526;19.072;2022-11-11T07:56:23;10.55;;;7.35;;
62110;SDS011;48102;47.526;19.072;2022-11-11T07:59:44;12.25;;;7.55;;
62110;SDS011;48102;47.526;19.072;2022-11-11T08:03:05;14.32;;;8.15;;
62110;SDS011;48102;47.526;19.072;2022-11-11T08:06:32;13.77;;;7.05;;
62110;SDS011;48102;47.526;19.072;2022-11-11T08:09:53;12.77;;;7.45;;
62110;SDS011;48102;47.526;19.072;2022-11-11T08:13:14;12.13;;;8.65;;
62110;SDS011;48102;47.526;19.072;2022-11-11T08:16:54;9.98;;;7.78;;
62110;SDS011;48102;47.526;19.072;2022-11-11T08:20:15;11.82;;;8.15;;
62110;SDS011;48102;47.526;19.072;2022-11-11T08:23:37;11.48;;;9.23;;
62110;SDS011;48102;47.526;19.072;2022-11-11T08:27:18;14.82;;;8.13;;
62110;SDS011;48102;47.526;19.072;2022-11-11T08:30:39;13.60;;;9.65;;
62110;SDS011;48102;47.526;19.072;2022-11-11T08:34:00;12.45;;;9.38;;
62110;SDS011;48102;47.526;19.072;2022-11-11T08:37:21;18.40;;;9.70;;
62110;SDS011;48102;47.526;19.072;2022-11-11T08:40:43;14.43;;;9.70;;
62110;SDS011;48102;47.526;19.072;2022-11-11T08:44:04;16.65;;;10.52;;
62110;SDS011;48102;47.526;19.072;2022-11-11T08:47:25;14.43;;;9.68;;
62110;SDS011;48102;47.526;19.072;2022-11-11T08:50:46;12.07;;;8.85;;
62110;SDS011;48102;47.526;19.072;2022-11-11T08:54:08;13.20;;;8.65;;
62110;SDS011;48102;47.526;19.072;2022-11-11T08:57:30;14.13;;;9.88;;
62110;SDS011;48102;47.526;19.072;2022-11-11T09:00:51;13.48;;;9.80;;
62110;SDS011;48102;47.526;19.072;2022-11-11T09:04:12;15.40;;;10.20;;
62110;SDS011;48102;47.526;19.072;2022-11-11T09:07:53;10.68;;;8.73;;
62110;SDS011;48102;47.526;19.072;2022-11-11T09:11:14;11.43;;;8.82;;
62110;SDS011;48102;47.526;19.072;2022-11-11T09:14:35;12.63;;;8.25;;
62110;SDS011;48102;47.526;19.072;2022-11-11T09:17:57;13.35;;;9.40;;
62110;SDS011;48102;47.526;19.072;2022-11-11T09:21:18;12.70;;;9.60;;
62110;SDS011;48102;47.526;19.072;2022-11-11T09:24:39;13.02;;;9.32;;
62110;SDS011;48102;47.526;19.072;2022-11-11T09:28:01;14.00;;;9.85;;
62110;SDS011;48102;47.526;19.072;2022-11-11T09:31:22;13.62;;;9.10;;
62110;SDS011;48102;47.526;19.072;2022-11-11T09:35:04;13.43;;;9.10;;
62110;SDS011;48102;47.526;19.072;2022-11-11T09:38:25;13.02;;;9.95;;
62110;SDS011;48102;47.526;19.072;2022-11-11T09:42:09;13.10;;;9.27;;
62110;SDS011;48102;47.526;19.072;2022-11-11T09:45:42;13.55;;;9.60;;
62110;SDS011;48102;47.526;19.072;2022-11-11T09:52:34;16.27;;;9.63;;
62110;SDS011;48102;47.526;19.072;2022-11-11T09:56:17;16.25;;;9.43;;
62110;SDS011;48102;47.526;19.072;2022-11-11T09:59:51;16.52;;;11.48;;
62110;SDS011;48102;47.526;19.072;2022-11-11T10:03:17;13.55;;;9.18;;
62110;SDS011;48102;47.526;19.072;2022-11-11T10:06:40;19.48;;;10.80;;
62110;SDS011;48102;47.526;19.072;2022-11-11T10:10:05;22.60;;;11.45;;
62110;SDS011;48102;47.526;19.072;2022-11-11T10:13:29;18.67;;;10.82;;
62110;SDS011;48102;47.526;19.072;2022-11-11T10:20:37;16.17;;;10.63;;
62110;SDS011;48102;47.526;19.072;2022-11-11T10:24:04;16.98;;;11.38;;
62110;SDS011;48102;47.526;19.072;2022-11-11T10:27:31;14.23;;;10.15;;
62110;SDS011;48102;47.526;19.072;2022-11-11T10:30:53;15.50;;;9.75;;
62110;SDS011;48102;47.526;19.072;2022-11-11T10:34:16;11.68;;;8.73;;
62110;SDS011;48102;47.526;19.072;2022-11-11T10:37:39;14.30;;;8.43;;
62110;SDS011;48102;47.526;19.072;2022-11-11T10:44:59;17.25;;;8.15;;
62110;SDS011;48102;47.526;19.072;2022-11-11T10:48:47;11.30;;;8.20;;
62110;SDS011;48102;47.526;19.072;2022-11-11T10:52:21;11.73;;;8.68;;
62110;SDS011;48102;47.526;19.072;2022-11-11T10:59:34;10.23;;;7.43;;
62110;SDS011;48102;47.526;19.072;2022-11-11T11:06:29;14.57;;;8.95;;
62110;SDS011;48102;47.526;19.072;2022-11-11T11:10:07;16.02;;;10.60;;
62110;SDS011;48102;47.526;19.072;2022-11-11T11:13:44;14.60;;;10.20;;
62110;SDS011;48102;47.526;19.072;2022-11-11T11:17:14;16.92;;;9.98;;
62110;SDS011;48102;47.526;19.072;2022-11-11T11:20:56;14.15;;;9.32;;
62110;SDS011;48102;47.526;19.072;2022-11-11T11:24:20;16.00;;;9.10;;
62110;SDS011;48102;47.526;19.072;2022-11-11T11:27:43;16.60;;;8.30;;
62110;SDS011;48102;47.526;19.072;2022-11-11T11:31:05;13.82;;;8.70;;
62110;SDS011;48102;47.526;19.072;2022-11-11T11:34:41;14.50;;;9.10;;
62110;SDS011;48102;47.526;19.072;2022-11-11T11:38:12;10.30;;;8.15;;
62110;SDS011;48102;47.526;19.072;2022-11-11T11:41:38;9.00;;;5.10;;
62110;SDS011;48102;47.526;19.072;2022-11-11T11:59:55;6.75;;;2.90;;
62110;SDS011;48102;47.526;19.072;2022-11-11T12:07:09;6.15;;;2.70;;
62110;SDS011;48102;47.526;19.072;2022-11-11T12:14:43;4.72;;;2.65;;
62110;SDS011;48102;47.526;19.072;2022-11-11T12:18:34;4.65;;;2.45;;
62110;SDS011;48102;47.526;19.072;2022-11-11T12:29:52;5.40;;;2.40;;
62110;SDS011;48102;47.526;19.072;2022-11-11T12:37:28;3.28;;;1.92;;
62110;SDS011;48102;47.526;19.072;2022-11-11T12:48:48;4.32;;;1.87;;
62110;SDS011;48102;47.526;19.072;2022-11-11T12:56:24;4.18;;;1.40;;
62110;SDS011;48102;47.526;19.072;2022-11-11T13:07:07;5.95;;;2.55;;
62110;SDS011;48102;47.526;19.072;2022-11-11T13:10:36;2.30;;;1.77;;
62110;SDS011;48102;47.526;19.072;2022-11-11T13:17:49;6.00;;;2.05;;
62110;SDS011;48102;47.526;19.072;2022-11-11T13:21:15;2.00;;;1.20;;
62110;SDS011;48102;47.526;19.072;2022-11-11T13:24:45;2.03;;;1.20;;
62110;SDS011;48102;47.526;19.072;2022-11-11T13:31:53;2.30;;;1.58;;
62110;SDS011;48102;47.526;19.072;2022-11-11T13:35:20;3.12;;;1.75;;
62110;SDS011;48102;47.526;19.072;2022-11-11T13:42:23;4.00;;;2.33;;
62110;SDS011;48102;47.526;19.072;2022-11-11T13:45:51;5.82;;;2.60;;
62110;SDS011;48102;47.526;19.072;2022-11-11T13:49:28;4.20;;;2.72;;
62110;SDS011;48102;47.526;19.072;2022-11-11T14:00:05;5.93;;;2.83;;
62110;SDS011;48102;47.526;19.072;2022-11-11T14:07:06;5.18;;;3.22;;
62110;SDS011;48102;47.526;19.072;2022-11-11T14:13:48;7.30;;;3.30;;
62110;SDS011;48102;47.526;19.072;2022-11-11T14:17:14;6.62;;;3.47;;
62110;SDS011;48102;47.526;19.072;2022-11-11T14:23:59;8.77;;;3.45;;
62110;SDS011;48102;47.526;19.072;2022-11-11T14:27:25;7.93;;;4.00;;
62110;SDS011;48102;47.526;19.072;2022-11-11T14:30:48;5.37;;;3.05;;
62110;SDS011;48102;47.526;19.072;2022-11-11T14:34:14;5.60;;;2.78;;
62110;SDS011;48102;47.526;19.072;2022-11-11T14:41:47;10.20;;;2.83;;
62110;SDS011;48102;47.526;19.072;2022-11-11T14:48:58;5.03;;;2.28;;
62110;SDS011;48102;47.526;19.072;2022-11-11T14:56:01;5.47;;;3.28;;
62110;SDS011;48102;47.526;19.072;2022-11-11T14:59:23;4.15;;;2.87;;
62110;SDS011;48102;47.526;19.072;2022-11-11T15:06:23;7.05;;;4.70;;
62110;SDS011;48102;47.526;19.072;2022-11-11T15:14:14;5.70;;;4.15;;
62110;SDS011;48102;47.526;19.072;2022-11-11T15:17:27;7.00;;;4.60;;
62110;SDS011;48102;47.526;19.072;2022-11-11T15:27:55;7.55;;;5.05;;
62110;SDS011;48102;47.526;19.072;2022-11-11T15:31:45;8.88;;;5.78;;
62110;SDS011;48102;47.526;19.072;2022-11-11T15:35:31;7.95;;;4.80;;
62110;SDS011;48102;47.526;19.072;2022-11-11T15:39:02;7.47;;;5.30;;
62110;SDS011;48102;47.526;19.072;2022-11-11T15:42:36;10.05;;;5.57;;
62110;SDS011;48102;47.526;19.072;2022-11-11T15:46:00;5.97;;;4.85;;
62110;SDS011;48102;47.526;19.072;2022-11-11T15:53:01;6.25;;;5.55;;
62110;SDS011;48102;47.526;19.072;2022-11-11T15:56:28;7.03;;;5.60;;
62110;SDS011;48102;47.526;19.072;2022-11-11T15:59:52;9.15;;;6.18;;
62110;SDS011;48102;47.526;19.072;2022-11-11T16:03:14;9.60;;;5.70;;
62110;SDS011;48102;47.526;19.072;2022-11-11T16:06:40;10.15;;;6.03;;
62110;SDS011;48102;47.526;19.072;2022-11-11T16:10:07;6.68;;;5.00;;
62110;SDS011;48102;47.526;19.072;2022-11-11T16:16:56;8.35;;;5.60;;
62110;SDS011;48102;47.526;19.072;2022-11-11T16:20:23;7.37;;;5.72;;
62110;SDS011;48102;47.526;19.072;2022-11-11T16:23:50;12.02;;;6.40;;
62110;SDS011;48102;47.526;19.072;2022-11-11T16:27:20;10.27;;;6.60;;
62110;SDS011;48102;47.526;19.072;2022-11-11T16:30:46;7.90;;;6.37;;
